This is the latest recevied weather packets stored in our database for station/object AG1T-20. If no packets are shown the sender has not sent any weather packets the latest 10 day(s).
| Time | Temp. | Humidity | Pressure | Rain* | Wind** | Luminosity | Snow |
|---|---|---|---|---|---|---|---|
| 1788046205 | 22.78° C | 51% | 1018.6 hPa | 0 mm | - | 150 W/m² | - |
| 1788045604 | 22.78° C | 50% | 1018.6 hPa | 0 mm | - | 176 W/m² | - |
| 1788045004 | 22.78° C | 49% | 1018.6 hPa | 0 mm | - | 200 W/m² | - |
| 1788044404 | 22.78° C | 50% | 1018.6 hPa | 0 mm | - | 264 W/m² | - |
| 1788043804 | 22.22° C | 53% | 1019.5 hPa | 0 mm | - | 304 W/m² | - |
| 1788043204 | 22.22° C | 52% | 1019.5 hPa | 0 mm | - | 318 W/m² | - |
| 1788042604 | 22.22° C | 54% | 1019.5 hPa | 0 mm | - | 311 W/m² | - |
| 1788042004 | 21.67° C | 54% | 1019.5 hPa | 0 mm | - | 344 W/m² | - |
| 1788041405 | 21.67° C | 56% | 1019.5 hPa | 0 mm | - | 388 W/m² | - |
| 1788040805 | 21.11° C | 56% | 1019.5 hPa | 0 mm | - | 368 W/m² | - |
| 1788040205 | 21.11° C | 55% | 1020.3 hPa | 0 mm | - | 535 W/m² | - |
| 1788039605 | 21.11° C | 50% | 1020.3 hPa | 0 mm | - | 726 W/m² | - |
| 1788039005 | 21.11° C | 52% | 1020.3 hPa | 0 mm | - | 410 W/m² | - |
| 1788038405 | 21.67° C | 55% | 1020.3 hPa | 0 mm | - | 708 W/m² | - |
| 1788037805 | 19.44° C | 63% | 1020.3 hPa | 0 mm | - | 501 W/m² | - |
| 1788037205 | 18.33° C | 68% | 1020.3 hPa | 0 mm | - | 212 W/m² | - |
| 1788036605 | 18.33° C | 67% | 1020.8 hPa | 0 mm | - | 137 W/m² | - |
| 1788036005 | 18.33° C | 67% | 1020.8 hPa | 0 mm | - | 173 W/m² | - |
| 1788035405 | 18.33° C | 68% | 1020.8 hPa | 0 mm | - | 162 W/m² | - |
| 1788034805 | 18.33° C | 67% | 1020.8 hPa | 0 mm | - | 115 W/m² | - |
| 1788034205 | 18.89° C | 63% | 1020.8 hPa | 0 mm | - | 95 W/m² | - |
| 1788033605 | 19.44° C | 62% | 1020.8 hPa | 0 mm | - | 153 W/m² | - |
| 1788033005 | 18.89° C | 64% | 1020.3 hPa | 0 mm | - | 143 W/m² | - |
| 1788032405 | 20° C | 60% | 1020.3 hPa | 0 mm | - | 264 W/m² | - |
| 1788031805 | 20.56° C | 59% | 1020.3 hPa | 0 mm | - | 366 W/m² | - |
* Rain latest hour (hover to see other rain measurements)
** Current wind speed in m/s (hover to see current wind gust speed)